KTHA/THA METAR and TAF weather

Enter ICAO airport designator
Station Type Date Time Source
KTHA METAR 2020/09/22 03:35 UTC NOAA

KTHA 220335Z AUTO 00000KT 10SM CLR 10/08 A3029 RMK A01


Station Type Date Time Source
KTHA Decoded METAR 2020/09/22 03:35 UTC NOAA

Station name not available
Sep 21, 2020 - 11:35 PM EDT / 2020.09.22 0335 UTC
Wind: Calm:0
Visibility: 10 mile(s):0
Sky conditions: clear
Temperature: 50 F (10 C)
Dew Point: 46 F (8 C)
Relative Humidity: 87%
Pressure (altimeter): 30.29 in. Hg (1025 hPa)
ob: KTHA 220335Z AUTO 00000KT 10SM CLR 10/08 A3029 RMK A01
cycle: 3

Station Type Date Time Source
KTHA TAF UTC NOAA

Error!

Example: see airport list